sensor_id;sensor_type;location;lat;lon;timestamp;temperature;humidity
27890;DHT22;15238;49.082;9.102;2024-03-29T00:00:04;6.40;99.90
27890;DHT22;15238;49.082;9.102;2024-03-29T00:02:04;6.40;99.90
27890;DHT22;15238;49.082;9.102;2024-03-29T00:04:05;6.40;99.90
27890;DHT22;15238;49.082;9.102;2024-03-29T00:06:06;6.50;99.90
27890;DHT22;15238;49.082;9.102;2024-03-29T00:08:06;6.50;99.90
27890;DHT22;15238;49.082;9.102;2024-03-29T00:10:07;6.50;99.90
27890;DHT22;15238;49.082;9.102;2024-03-29T00:12:07;6.50;99.90
27890;DHT22;15238;49.082;9.102;2024-03-29T00:14:08;6.50;99.90
27890;DHT22;15238;49.082;9.102;2024-03-29T00:16:08;6.60;99.90
27890;DHT22;15238;49.082;9.102;2024-03-29T00:18:09;6.60;99.90
27890;DHT22;15238;49.082;9.102;2024-03-29T00:20:10;6.70;99.90
27890;DHT22;15238;49.082;9.102;2024-03-29T00:22:12;6.70;99.90
27890;DHT22;15238;49.082;9.102;2024-03-29T00:24:12;6.70;99.90
27890;DHT22;15238;49.082;9.102;2024-03-29T00:26:13;6.70;99.90
27890;DHT22;15238;49.082;9.102;2024-03-29T00:28:14;6.70;99.90
27890;DHT22;15238;49.082;9.102;2024-03-29T00:30:14;6.70;99.90
27890;DHT22;15238;49.082;9.102;2024-03-29T00:32:15;6.80;99.90
27890;DHT22;15238;49.082;9.102;2024-03-29T00:34:15;6.80;99.90
27890;DHT22;15238;49.082;9.102;2024-03-29T00:36:16;6.90;99.90
27890;DHT22;15238;49.082;9.102;2024-03-29T00:38:16;7.00;99.90
27890;DHT22;15238;49.082;9.102;2024-03-29T00:40:17;7.00;99.90
27890;DHT22;15238;49.082;9.102;2024-03-29T00:42:17;7.00;99.90
27890;DHT22;15238;49.082;9.102;2024-03-29T00:44:19;7.10;99.90
27890;DHT22;15238;49.082;9.102;2024-03-29T00:46:20;7.10;99.90
27890;DHT22;15238;49.082;9.102;2024-03-29T00:48:20;7.20;99.90
27890;DHT22;15238;49.082;9.102;2024-03-29T00:50:21;7.20;99.90
27890;DHT22;15238;49.082;9.102;2024-03-29T00:52:22;7.30;99.90
27890;DHT22;15238;49.082;9.102;2024-03-29T00:54:22;7.20;99.90
27890;DHT22;15238;49.082;9.102;2024-03-29T00:56:25;7.20;99.90
27890;DHT22;15238;49.082;9.102;2024-03-29T00:58:26;7.20;99.90
27890;DHT22;15238;49.082;9.102;2024-03-29T01:00:27;7.20;99.90
27890;DHT22;15238;49.082;9.102;2024-03-29T01:02:27;7.20;99.90
27890;DHT22;15238;49.082;9.102;2024-03-29T01:04:28;7.20;99.90
27890;DHT22;15238;49.082;9.102;2024-03-29T01:06:28;7.20;99.90
27890;DHT22;15238;49.082;9.102;2024-03-29T01:08:28;7.20;99.90
27890;DHT22;15238;49.082;9.102;2024-03-29T01:10:29;7.30;99.90
27890;DHT22;15238;49.082;9.102;2024-03-29T01:12:29;7.30;99.90
27890;DHT22;15238;49.082;9.102;2024-03-29T01:14:30;7.40;99.90
27890;DHT22;15238;49.082;9.102;2024-03-29T01:16:31;7.40;99.90
27890;DHT22;15238;49.082;9.102;2024-03-29T01:18:31;7.50;99.90
27890;DHT22;15238;49.082;9.102;2024-03-29T01:20:33;7.50;99.90
27890;DHT22;15238;49.082;9.102;2024-03-29T01:22:34;7.60;99.90
27890;DHT22;15238;49.082;9.102;2024-03-29T01:24:34;7.60;99.90
27890;DHT22;15238;49.082;9.102;2024-03-29T01:26:35;7.60;99.90
27890;DHT22;15238;49.082;9.102;2024-03-29T01:28:35;7.70;99.90
27890;DHT22;15238;49.082;9.102;2024-03-29T01:30:37;7.60;99.90
27890;DHT22;15238;49.082;9.102;2024-03-29T01:32:38;7.70;99.90
27890;DHT22;15238;49.082;9.102;2024-03-29T01:34:38;7.70;99.90
27890;DHT22;15238;49.082;9.102;2024-03-29T01:36:39;7.70;99.90
27890;DHT22;15238;49.082;9.102;2024-03-29T01:38:39;7.70;99.90
27890;DHT22;15238;49.082;9.102;2024-03-29T01:40:40;7.70;99.90
27890;DHT22;15238;49.082;9.102;2024-03-29T01:42:41;7.70;99.90
27890;DHT22;15238;49.082;9.102;2024-03-29T01:44:41;7.60;99.90
27890;DHT22;15238;49.082;9.102;2024-03-29T01:46:42;7.60;99.90
27890;DHT22;15238;49.082;9.102;2024-03-29T01:48:43;7.60;99.90
27890;DHT22;15238;49.082;9.102;2024-03-29T01:50:45;7.60;99.90
27890;DHT22;15238;49.082;9.102;2024-03-29T01:52:46;7.60;99.90
27890;DHT22;15238;49.082;9.102;2024-03-29T01:54:47;7.70;99.90
27890;DHT22;15238;49.082;9.102;2024-03-29T01:56:49;7.70;99.90
27890;DHT22;15238;49.082;9.102;2024-03-29T01:58:50;7.70;99.90
27890;DHT22;15238;49.082;9.102;2024-03-29T02:00:53;7.70;99.90
27890;DHT22;15238;49.082;9.102;2024-03-29T02:02:54;7.70;99.90
27890;DHT22;15238;49.082;9.102;2024-03-29T02:04:56;7.80;99.90
27890;DHT22;15238;49.082;9.102;2024-03-29T02:06:57;7.80;99.90
27890;DHT22;15238;49.082;9.102;2024-03-29T02:08:58;7.80;99.90
27890;DHT22;15238;49.082;9.102;2024-03-29T02:10:58;7.80;99.90
27890;DHT22;15238;49.082;9.102;2024-03-29T02:12:59;7.80;99.90
27890;DHT22;15238;49.082;9.102;2024-03-29T02:14:59;7.80;99.90
27890;DHT22;15238;49.082;9.102;2024-03-29T02:17:02;7.80;99.90
27890;DHT22;15238;49.082;9.102;2024-03-29T02:19:03;7.80;99.90
27890;DHT22;15238;49.082;9.102;2024-03-29T02:21:04;7.80;99.90
27890;DHT22;15238;49.082;9.102;2024-03-29T02:23:11;7.80;99.90
27890;DHT22;15238;49.082;9.102;2024-03-29T02:25:13;7.70;99.90
27890;DHT22;15238;49.082;9.102;2024-03-29T02:27:13;7.80;99.90
27890;DHT22;15238;49.082;9.102;2024-03-29T02:29:14;7.70;99.90
27890;DHT22;15238;49.082;9.102;2024-03-29T02:31:15;7.70;99.90
27890;DHT22;15238;49.082;9.102;2024-03-29T02:33:15;7.70;99.90
27890;DHT22;15238;49.082;9.102;2024-03-29T02:35:16;7.70;99.90
27890;DHT22;15238;49.082;9.102;2024-03-29T02:37:16;7.70;99.90
27890;DHT22;15238;49.082;9.102;2024-03-29T02:39:17;7.70;99.90
27890;DHT22;15238;49.082;9.102;2024-03-29T02:41:17;7.70;99.90
27890;DHT22;15238;49.082;9.102;2024-03-29T02:43:18;7.70;99.90
27890;DHT22;15238;49.082;9.102;2024-03-29T02:45:18;7.70;99.90
27890;DHT22;15238;49.082;9.102;2024-03-29T02:47:19;7.70;99.90
27890;DHT22;15238;49.082;9.102;2024-03-29T02:49:19;7.80;99.90
27890;DHT22;15238;49.082;9.102;2024-03-29T02:51:20;7.80;99.90
27890;DHT22;15238;49.082;9.102;2024-03-29T02:53:20;7.80;99.90
27890;DHT22;15238;49.082;9.102;2024-03-29T02:55:21;7.80;99.90
27890;DHT22;15238;49.082;9.102;2024-03-29T02:57:21;7.80;99.90
27890;DHT22;15238;49.082;9.102;2024-03-29T02:59:22;7.80;99.90
27890;DHT22;15238;49.082;9.102;2024-03-29T03:01:22;7.80;99.90
27890;DHT22;15238;49.082;9.102;2024-03-29T03:03:26;7.80;99.90
27890;DHT22;15238;49.082;9.102;2024-03-29T03:05:26;7.70;99.90
27890;DHT22;15238;49.082;9.102;2024-03-29T03:07:27;7.70;99.90
27890;DHT22;15238;49.082;9.102;2024-03-29T03:09:46;7.70;99.90
27890;DHT22;15238;49.082;9.102;2024-03-29T03:12:05;7.70;99.90
27890;DHT22;15238;49.082;9.102;2024-03-29T03:14:06;7.70;99.90
27890;DHT22;15238;49.082;9.102;2024-03-29T03:16:07;7.70;99.90
27890;DHT22;15238;49.082;9.102;2024-03-29T03:18:07;7.70;99.90
27890;DHT22;15238;49.082;9.102;2024-03-29T03:20:08;7.70;99.90
27890;DHT22;15238;49.082;9.102;2024-03-29T03:22:09;7.70;99.90
27890;DHT22;15238;49.082;9.102;2024-03-29T03:24:10;7.80;99.90
27890;DHT22;15238;49.082;9.102;2024-03-29T03:26:12;7.80;99.90
27890;DHT22;15238;49.082;9.102;2024-03-29T03:28:12;7.80;99.90
27890;DHT22;15238;49.082;9.102;2024-03-29T03:30:14;7.90;99.90
27890;DHT22;15238;49.082;9.102;2024-03-29T03:32:15;7.80;99.90
27890;DHT22;15238;49.082;9.102;2024-03-29T03:34:15;7.90;99.90
27890;DHT22;15238;49.082;9.102;2024-03-29T03:36:16;7.90;99.90
27890;DHT22;15238;49.082;9.102;2024-03-29T03:38:16;8.00;99.90
27890;DHT22;15238;49.082;9.102;2024-03-29T03:40:17;8.00;99.90
27890;DHT22;15238;49.082;9.102;2024-03-29T03:42:17;8.00;99.90
27890;DHT22;15238;49.082;9.102;2024-03-29T03:44:18;8.00;99.90
27890;DHT22;15238;49.082;9.102;2024-03-29T03:46:18;8.00;99.90
27890;DHT22;15238;49.082;9.102;2024-03-29T03:48:19;8.30;99.90
27890;DHT22;15238;49.082;9.102;2024-03-29T03:50:20;8.40;99.90
27890;DHT22;15238;49.082;9.102;2024-03-29T03:52:20;8.40;99.90
27890;DHT22;15238;49.082;9.102;2024-03-29T03:54:21;8.50;99.90
27890;DHT22;15238;49.082;9.102;2024-03-29T03:56:21;8.60;99.90
27890;DHT22;15238;49.082;9.102;2024-03-29T03:58:22;8.50;99.90
27890;DHT22;15238;49.082;9.102;2024-03-29T04:00:23;8.50;99.90
27890;DHT22;15238;49.082;9.102;2024-03-29T04:02:23;8.50;99.90
27890;DHT22;15238;49.082;9.102;2024-03-29T04:04:23;8.50;99.90
27890;DHT22;15238;49.082;9.102;2024-03-29T04:06:24;8.50;99.90
27890;DHT22;15238;49.082;9.102;2024-03-29T04:08:24;8.60;99.90
27890;DHT22;15238;49.082;9.102;2024-03-29T04:10:25;8.60;99.90
27890;DHT22;15238;49.082;9.102;2024-03-29T04:12:25;8.70;99.90
27890;DHT22;15238;49.082;9.102;2024-03-29T04:14:26;8.70;99.90
27890;DHT22;15238;49.082;9.102;2024-03-29T04:16:26;8.70;99.90
27890;DHT22;15238;49.082;9.102;2024-03-29T04:18:27;8.70;99.90
27890;DHT22;15238;49.082;9.102;2024-03-29T04:20:28;8.70;99.90
27890;DHT22;15238;49.082;9.102;2024-03-29T04:22:28;8.60;99.90
27890;DHT22;15238;49.082;9.102;2024-03-29T04:24:29;8.60;99.90
27890;DHT22;15238;49.082;9.102;2024-03-29T04:26:29;8.60;99.90
27890;DHT22;15238;49.082;9.102;2024-03-29T04:28:30;8.50;99.90
27890;DHT22;15238;49.082;9.102;2024-03-29T04:30:30;8.50;99.90
27890;DHT22;15238;49.082;9.102;2024-03-29T04:32:31;8.40;99.90
27890;DHT22;15238;49.082;9.102;2024-03-29T04:34:31;8.40;99.90
27890;DHT22;15238;49.082;9.102;2024-03-29T04:36:32;8.40;99.90
27890;DHT22;15238;49.082;9.102;2024-03-29T04:38:32;8.40;99.90
27890;DHT22;15238;49.082;9.102;2024-03-29T04:40:33;8.40;99.90
27890;DHT22;15238;49.082;9.102;2024-03-29T04:42:33;8.40;99.90
27890;DHT22;15238;49.082;9.102;2024-03-29T04:44:34;8.40;99.90
27890;DHT22;15238;49.082;9.102;2024-03-29T04:46:34;8.40;99.90
27890;DHT22;15238;49.082;9.102;2024-03-29T04:48:36;8.40;99.90
27890;DHT22;15238;49.082;9.102;2024-03-29T04:50:36;8.40;99.90
27890;DHT22;15238;49.082;9.102;2024-03-29T04:52:37;8.40;99.90
27890;DHT22;15238;49.082;9.102;2024-03-29T04:54:38;8.50;99.90
27890;DHT22;15238;49.082;9.102;2024-03-29T04:56:38;8.50;99.90
27890;DHT22;15238;49.082;9.102;2024-03-29T04:58:39;8.40;99.90
27890;DHT22;15238;49.082;9.102;2024-03-29T05:00:42;8.40;99.90
27890;DHT22;15238;49.082;9.102;2024-03-29T05:02:42;8.40;99.90
27890;DHT22;15238;49.082;9.102;2024-03-29T05:04:43;8.40;99.90
27890;DHT22;15238;49.082;9.102;2024-03-29T05:06:44;8.40;99.90
27890;DHT22;15238;49.082;9.102;2024-03-29T05:08:46;8.30;99.90
27890;DHT22;15238;49.082;9.102;2024-03-29T05:10:46;8.30;99.90
27890;DHT22;15238;49.082;9.102;2024-03-29T05:12:47;8.30;99.90
27890;DHT22;15238;49.082;9.102;2024-03-29T05:14:47;8.30;99.90
27890;DHT22;15238;49.082;9.102;2024-03-29T05:16:49;8.30;99.90
27890;DHT22;15238;49.082;9.102;2024-03-29T05:18:50;8.30;99.90
27890;DHT22;15238;49.082;9.102;2024-03-29T05:20:50;8.40;99.90
27890;DHT22;15238;49.082;9.102;2024-03-29T05:22:51;8.40;99.90
27890;DHT22;15238;49.082;9.102;2024-03-29T05:24:55;8.40;99.90
27890;DHT22;15238;49.082;9.102;2024-03-29T05:26:55;8.50;99.90
27890;DHT22;15238;49.082;9.102;2024-03-29T05:28:55;8.50;99.90
27890;DHT22;15238;49.082;9.102;2024-03-29T05:31:12;8.50;99.90
27890;DHT22;15238;49.082;9.102;2024-03-29T05:33:13;8.50;99.90
27890;DHT22;15238;49.082;9.102;2024-03-29T05:35:14;8.50;99.90
27890;DHT22;15238;49.082;9.102;2024-03-29T05:37:14;8.50;99.90
27890;DHT22;15238;49.082;9.102;2024-03-29T05:39:17;8.50;99.90
27890;DHT22;15238;49.082;9.102;2024-03-29T05:41:19;8.50;99.90
27890;DHT22;15238;49.082;9.102;2024-03-29T05:43:19;8.50;99.90
27890;DHT22;15238;49.082;9.102;2024-03-29T05:45:25;8.50;99.90
27890;DHT22;15238;49.082;9.102;2024-03-29T05:47:26;8.60;99.90
27890;DHT22;15238;49.082;9.102;2024-03-29T05:49:26;8.60;99.90
27890;DHT22;15238;49.082;9.102;2024-03-29T05:51:27;8.60;99.90
27890;DHT22;15238;49.082;9.102;2024-03-29T05:53:27;8.60;99.90
27890;DHT22;15238;49.082;9.102;2024-03-29T05:55:28;8.60;99.90
27890;DHT22;15238;49.082;9.102;2024-03-29T05:57:28;8.60;99.90
27890;DHT22;15238;49.082;9.102;2024-03-29T05:59:31;8.60;99.90
27890;DHT22;15238;49.082;9.102;2024-03-29T06:01:31;8.60;99.90
27890;DHT22;15238;49.082;9.102;2024-03-29T06:03:32;8.70;99.90
27890;DHT22;15238;49.082;9.102;2024-03-29T06:05:32;8.70;99.90
27890;DHT22;15238;49.082;9.102;2024-03-29T06:07:33;8.70;99.90
27890;DHT22;15238;49.082;9.102;2024-03-29T06:09:33;8.70;99.90
27890;DHT22;15238;49.082;9.102;2024-03-29T06:11:34;8.70;99.90
27890;DHT22;15238;49.082;9.102;2024-03-29T06:13:34;8.70;99.90
27890;DHT22;15238;49.082;9.102;2024-03-29T06:15:53;8.70;99.90
27890;DHT22;15238;49.082;9.102;2024-03-29T06:18:12;8.70;99.90
27890;DHT22;15238;49.082;9.102;2024-03-29T06:20:16;8.70;99.90
27890;DHT22;15238;49.082;9.102;2024-03-29T06:22:17;8.80;99.90
27890;DHT22;15238;49.082;9.102;2024-03-29T06:24:18;8.80;99.90
27890;DHT22;15238;49.082;9.102;2024-03-29T06:26:18;8.90;99.90
27890;DHT22;15238;49.082;9.102;2024-03-29T06:28:19;8.90;99.90
27890;DHT22;15238;49.082;9.102;2024-03-29T06:30:20;8.90;99.90
27890;DHT22;15238;49.082;9.102;2024-03-29T06:32:20;8.90;99.90
27890;DHT22;15238;49.082;9.102;2024-03-29T06:34:21;9.00;99.90
27890;DHT22;15238;49.082;9.102;2024-03-29T06:36:22;9.00;99.90
27890;DHT22;15238;49.082;9.102;2024-03-29T06:38:22;9.00;99.90
27890;DHT22;15238;49.082;9.102;2024-03-29T06:40:23;9.10;99.90
27890;DHT22;15238;49.082;9.102;2024-03-29T06:42:23;9.10;99.90
27890;DHT22;15238;49.082;9.102;2024-03-29T06:44:24;9.10;99.90
27890;DHT22;15238;49.082;9.102;2024-03-29T06:46:25;9.20;99.90
27890;DHT22;15238;49.082;9.102;2024-03-29T06:48:26;9.20;99.90
27890;DHT22;15238;49.082;9.102;2024-03-29T06:50:26;9.30;99.90
27890;DHT22;15238;49.082;9.102;2024-03-29T06:52:27;9.40;99.90
27890;DHT22;15238;49.082;9.102;2024-03-29T06:54:28;9.40;99.90
27890;DHT22;15238;49.082;9.102;2024-03-29T06:56:28;9.50;99.90
27890;DHT22;15238;49.082;9.102;2024-03-29T06:58:30;9.60;99.90
27890;DHT22;15238;49.082;9.102;2024-03-29T07:00:31;9.60;99.90
27890;DHT22;15238;49.082;9.102;2024-03-29T07:02:31;9.70;99.90
27890;DHT22;15238;49.082;9.102;2024-03-29T07:04:32;9.80;99.90
27890;DHT22;15238;49.082;9.102;2024-03-29T07:06:32;9.90;99.90
27890;DHT22;15238;49.082;9.102;2024-03-29T07:08:33;9.90;99.90
27890;DHT22;15238;49.082;9.102;2024-03-29T07:10:33;10.00;99.90
27890;DHT22;15238;49.082;9.102;2024-03-29T07:12:34;10.10;99.90
27890;DHT22;15238;49.082;9.102;2024-03-29T07:14:34;10.10;99.90
27890;DHT22;15238;49.082;9.102;2024-03-29T07:16:35;10.20;99.90
27890;DHT22;15238;49.082;9.102;2024-03-29T07:18:36;10.30;99.90
27890;DHT22;15238;49.082;9.102;2024-03-29T07:20:36;10.40;99.90
27890;DHT22;15238;49.082;9.102;2024-03-29T07:22:37;10.40;99.90
27890;DHT22;15238;49.082;9.102;2024-03-29T07:24:37;10.40;99.90
27890;DHT22;15238;49.082;9.102;2024-03-29T07:26:38;10.40;99.90
27890;DHT22;15238;49.082;9.102;2024-03-29T07:28:39;10.40;99.90
27890;DHT22;15238;49.082;9.102;2024-03-29T07:30:39;10.40;99.90
27890;DHT22;15238;49.082;9.102;2024-03-29T07:32:40;10.40;99.90
27890;DHT22;15238;49.082;9.102;2024-03-29T07:34:40;10.20;99.90
27890;DHT22;15238;49.082;9.102;2024-03-29T07:36:41;10.20;99.90
27890;DHT22;15238;49.082;9.102;2024-03-29T07:38:41;10.20;99.90
27890;DHT22;15238;49.082;9.102;2024-03-29T07:40:45;10.20;99.90
27890;DHT22;15238;49.082;9.102;2024-03-29T07:42:46;10.10;99.90
27890;DHT22;15238;49.082;9.102;2024-03-29T07:44:46;10.20;99.90
27890;DHT22;15238;49.082;9.102;2024-03-29T07:46:47;10.10;99.90
27890;DHT22;15238;49.082;9.102;2024-03-29T07:48:49;10.10;99.90
27890;DHT22;15238;49.082;9.102;2024-03-29T07:50:49;10.10;99.90
27890;DHT22;15238;49.082;9.102;2024-03-29T07:52:50;10.00;99.90
27890;DHT22;15238;49.082;9.102;2024-03-29T07:54:51;10.10;99.90
27890;DHT22;15238;49.082;9.102;2024-03-29T07:56:51;10.10;99.90
27890;DHT22;15238;49.082;9.102;2024-03-29T07:58:52;10.10;99.90
27890;DHT22;15238;49.082;9.102;2024-03-29T08:00:53;10.00;99.90
27890;DHT22;15238;49.082;9.102;2024-03-29T08:02:54;9.90;99.90
27890;DHT22;15238;49.082;9.102;2024-03-29T08:04:54;9.70;99.90
27890;DHT22;15238;49.082;9.102;2024-03-29T08:06:55;9.70;99.90
27890;DHT22;15238;49.082;9.102;2024-03-29T08:08:55;9.70;99.90
27890;DHT22;15238;49.082;9.102;2024-03-29T08:10:56;9.70;99.90
27890;DHT22;15238;49.082;9.102;2024-03-29T08:12:56;9.60;99.90
27890;DHT22;15238;49.082;9.102;2024-03-29T08:14:57;9.60;99.90
27890;DHT22;15238;49.082;9.102;2024-03-29T08:16:57;9.60;99.90
27890;DHT22;15238;49.082;9.102;2024-03-29T08:19:02;9.50;99.90
27890;DHT22;15238;49.082;9.102;2024-03-29T08:21:03;9.50;99.90
27890;DHT22;15238;49.082;9.102;2024-03-29T08:23:04;9.40;99.90
27890;DHT22;15238;49.082;9.102;2024-03-29T08:25:05;9.40;99.90
27890;DHT22;15238;49.082;9.102;2024-03-29T08:27:05;9.30;99.90
27890;DHT22;15238;49.082;9.102;2024-03-29T08:29:06;9.20;99.90
27890;DHT22;15238;49.082;9.102;2024-03-29T08:31:07;9.10;99.90
27890;DHT22;15238;49.082;9.102;2024-03-29T08:33:10;9.00;99.90
27890;DHT22;15238;49.082;9.102;2024-03-29T08:35:11;8.90;99.90
27890;DHT22;15238;49.082;9.102;2024-03-29T08:37:11;8.90;99.90
27890;DHT22;15238;49.082;9.102;2024-03-29T08:39:12;8.90;99.90
27890;DHT22;15238;49.082;9.102;2024-03-29T08:41:13;8.80;99.90
27890;DHT22;15238;49.082;9.102;2024-03-29T08:43:14;8.80;99.90
27890;DHT22;15238;49.082;9.102;2024-03-29T08:45:16;8.80;99.90
27890;DHT22;15238;49.082;9.102;2024-03-29T08:47:16;8.70;99.90
27890;DHT22;15238;49.082;9.102;2024-03-29T08:49:17;8.70;99.90
27890;DHT22;15238;49.082;9.102;2024-03-29T08:51:17;8.70;99.90
27890;DHT22;15238;49.082;9.102;2024-03-29T08:53:18;8.60;99.90
27890;DHT22;15238;49.082;9.102;2024-03-29T08:55:18;8.60;99.90
27890;DHT22;15238;49.082;9.102;2024-03-29T08:57:19;8.70;99.90
27890;DHT22;15238;49.082;9.102;2024-03-29T08:59:19;8.70;99.90
27890;DHT22;15238;49.082;9.102;2024-03-29T09:01:20;8.70;99.90
27890;DHT22;15238;49.082;9.102;2024-03-29T09:03:21;8.70;99.90
27890;DHT22;15238;49.082;9.102;2024-03-29T09:05:22;8.70;99.90
27890;DHT22;15238;49.082;9.102;2024-03-29T09:07:23;8.70;99.90
27890;DHT22;15238;49.082;9.102;2024-03-29T09:09:24;8.80;99.90
27890;DHT22;15238;49.082;9.102;2024-03-29T09:11:25;8.90;99.90
27890;DHT22;15238;49.082;9.102;2024-03-29T09:13:25;8.90;99.90
27890;DHT22;15238;49.082;9.102;2024-03-29T09:15:26;9.00;99.90
27890;DHT22;15238;49.082;9.102;2024-03-29T09:17:26;9.10;99.90
27890;DHT22;15238;49.082;9.102;2024-03-29T09:19:27;9.10;99.90
27890;DHT22;15238;49.082;9.102;2024-03-29T09:21:28;9.20;99.90
27890;DHT22;15238;49.082;9.102;2024-03-29T09:23:29;9.20;99.90
27890;DHT22;15238;49.082;9.102;2024-03-29T09:25:29;9.30;99.90
27890;DHT22;15238;49.082;9.102;2024-03-29T09:27:30;9.40;99.90
27890;DHT22;15238;49.082;9.102;2024-03-29T09:29:33;9.40;99.90
27890;DHT22;15238;49.082;9.102;2024-03-29T09:31:34;9.60;99.90
27890;DHT22;15238;49.082;9.102;2024-03-29T09:33:35;9.70;99.90
27890;DHT22;15238;49.082;9.102;2024-03-29T09:35:36;9.70;99.90
27890;DHT22;15238;49.082;9.102;2024-03-29T09:37:37;9.80;99.90
27890;DHT22;15238;49.082;9.102;2024-03-29T09:39:38;9.70;99.90
27890;DHT22;15238;49.082;9.102;2024-03-29T09:41:40;9.80;99.90
27890;DHT22;15238;49.082;9.102;2024-03-29T09:43:46;9.80;99.90
27890;DHT22;15238;49.082;9.102;2024-03-29T09:45:47;9.80;99.90
27890;DHT22;15238;49.082;9.102;2024-03-29T09:47:48;9.80;99.90
27890;DHT22;15238;49.082;9.102;2024-03-29T09:49:50;9.90;99.90
27890;DHT22;15238;49.082;9.102;2024-03-29T09:51:51;10.00;99.90
27890;DHT22;15238;49.082;9.102;2024-03-29T09:53:52;10.10;99.90
27890;DHT22;15238;49.082;9.102;2024-03-29T09:55:53;10.20;99.90
27890;DHT22;15238;49.082;9.102;2024-03-29T09:57:55;10.20;99.90
27890;DHT22;15238;49.082;9.102;2024-03-29T09:59:56;10.20;99.90
27890;DHT22;15238;49.082;9.102;2024-03-29T10:01:58;10.20;99.90
27890;DHT22;15238;49.082;9.102;2024-03-29T10:04:00;10.30;99.90
27890;DHT22;15238;49.082;9.102;2024-03-29T10:06:02;10.20;99.90
27890;DHT22;15238;49.082;9.102;2024-03-29T10:08:04;10.20;99.90
27890;DHT22;15238;49.082;9.102;2024-03-29T10:10:07;10.30;99.90
27890;DHT22;15238;49.082;9.102;2024-03-29T10:12:08;10.60;99.90
27890;DHT22;15238;49.082;9.102;2024-03-29T10:14:09;10.60;99.90
27890;DHT22;15238;49.082;9.102;2024-03-29T10:16:09;10.80;99.90
27890;DHT22;15238;49.082;9.102;2024-03-29T10:18:11;10.90;99.90
27890;DHT22;15238;49.082;9.102;2024-03-29T10:20:11;11.00;99.90
27890;DHT22;15238;49.082;9.102;2024-03-29T10:22:13;11.10;99.90
27890;DHT22;15238;49.082;9.102;2024-03-29T10:24:14;11.20;99.90
27890;DHT22;15238;49.082;9.102;2024-03-29T10:26:15;11.40;99.90
27890;DHT22;15238;49.082;9.102;2024-03-29T10:28:21;11.40;99.90
27890;DHT22;15238;49.082;9.102;2024-03-29T10:30:24;11.50;99.90
27890;DHT22;15238;49.082;9.102;2024-03-29T10:32:25;11.50;99.90
27890;DHT22;15238;49.082;9.102;2024-03-29T10:34:26;11.50;99.90
27890;DHT22;15238;49.082;9.102;2024-03-29T10:36:26;11.40;99.90
27890;DHT22;15238;49.082;9.102;2024-03-29T10:38:27;11.30;99.90
27890;DHT22;15238;49.082;9.102;2024-03-29T10:40:28;11.20;99.90
27890;DHT22;15238;49.082;9.102;2024-03-29T10:42:31;11.10;99.90
27890;DHT22;15238;49.082;9.102;2024-03-29T10:44:34;11.00;99.90
27890;DHT22;15238;49.082;9.102;2024-03-29T10:46:36;11.00;99.90
27890;DHT22;15238;49.082;9.102;2024-03-29T10:48:38;10.90;99.90
27890;DHT22;15238;49.082;9.102;2024-03-29T10:50:39;10.90;99.90
27890;DHT22;15238;49.082;9.102;2024-03-29T10:52:42;10.90;99.90
27890;DHT22;15238;49.082;9.102;2024-03-29T10:54:47;11.00;99.90
27890;DHT22;15238;49.082;9.102;2024-03-29T10:56:55;11.00;99.90
27890;DHT22;15238;49.082;9.102;2024-03-29T10:59:05;11.00;99.90
27890;DHT22;15238;49.082;9.102;2024-03-29T11:01:06;11.20;99.90
27890;DHT22;15238;49.082;9.102;2024-03-29T11:05:38;11.50;99.90
27890;DHT22;15238;49.082;9.102;2024-03-29T11:07:42;11.80;99.90
27890;DHT22;15238;49.082;9.102;2024-03-29T11:09:45;12.00;99.90
27890;DHT22;15238;49.082;9.102;2024-03-29T11:11:50;12.10;99.90
27890;DHT22;15238;49.082;9.102;2024-03-29T11:14:07;12.20;99.90
27890;DHT22;15238;49.082;9.102;2024-03-29T11:16:08;12.30;99.90
27890;DHT22;15238;49.082;9.102;2024-03-29T11:18:09;12.40;99.90
27890;DHT22;15238;49.082;9.102;2024-03-29T11:20:10;12.60;99.90
27890;DHT22;15238;49.082;9.102;2024-03-29T11:22:12;12.70;99.90
27890;DHT22;15238;49.082;9.102;2024-03-29T11:24:13;12.90;99.90
27890;DHT22;15238;49.082;9.102;2024-03-29T11:26:14;12.90;99.90
27890;DHT22;15238;49.082;9.102;2024-03-29T11:28:22;12.90;99.90
27890;DHT22;15238;49.082;9.102;2024-03-29T11:30:24;13.00;99.90
27890;DHT22;15238;49.082;9.102;2024-03-29T11:32:38;13.10;99.90
27890;DHT22;15238;49.082;9.102;2024-03-29T11:34:44;13.20;99.90
27890;DHT22;15238;49.082;9.102;2024-03-29T11:36:46;13.30;99.90
27890;DHT22;15238;49.082;9.102;2024-03-29T11:38:51;13.30;99.90
27890;DHT22;15238;49.082;9.102;2024-03-29T11:41:07;13.40;99.90
27890;DHT22;15238;49.082;9.102;2024-03-29T11:43:07;13.40;99.90
27890;DHT22;15238;49.082;9.102;2024-03-29T11:45:08;13.60;99.90
27890;DHT22;15238;49.082;9.102;2024-03-29T11:47:11;13.60;99.90
27890;DHT22;15238;49.082;9.102;2024-03-29T11:49:12;13.60;99.90
27890;DHT22;15238;49.082;9.102;2024-03-29T11:51:14;13.60;99.90
27890;DHT22;15238;49.082;9.102;2024-03-29T11:53:15;13.60;99.90
27890;DHT22;15238;49.082;9.102;2024-03-29T11:55:15;13.50;99.90
27890;DHT22;15238;49.082;9.102;2024-03-29T11:57:16;13.40;99.90
27890;DHT22;15238;49.082;9.102;2024-03-29T11:59:16;13.30;99.90
27890;DHT22;15238;49.082;9.102;2024-03-29T12:01:18;13.20;99.90
27890;DHT22;15238;49.082;9.102;2024-03-29T12:03:20;13.20;99.90
27890;DHT22;15238;49.082;9.102;2024-03-29T12:05:22;13.20;99.90
27890;DHT22;15238;49.082;9.102;2024-03-29T12:07:22;13.20;99.90
27890;DHT22;15238;49.082;9.102;2024-03-29T12:09:23;13.20;99.90
27890;DHT22;15238;49.082;9.102;2024-03-29T12:11:25;13.20;99.90
27890;DHT22;15238;49.082;9.102;2024-03-29T12:13:28;13.20;99.90
27890;DHT22;15238;49.082;9.102;2024-03-29T12:15:29;13.10;99.90
27890;DHT22;15238;49.082;9.102;2024-03-29T12:17:29;13.10;99.90
27890;DHT22;15238;49.082;9.102;2024-03-29T12:19:30;13.00;99.90
27890;DHT22;15238;49.082;9.102;2024-03-29T12:21:32;13.00;99.90
27890;DHT22;15238;49.082;9.102;2024-03-29T12:23:32;13.00;99.90
27890;DHT22;15238;49.082;9.102;2024-03-29T12:25:34;13.00;99.90
27890;DHT22;15238;49.082;9.102;2024-03-29T12:27:35;13.00;99.90
27890;DHT22;15238;49.082;9.102;2024-03-29T12:29:36;12.90;99.90
27890;DHT22;15238;49.082;9.102;2024-03-29T12:31:37;12.90;99.90
27890;DHT22;15238;49.082;9.102;2024-03-29T12:33:39;12.90;99.90
27890;DHT22;15238;49.082;9.102;2024-03-29T12:35:45;13.00;99.90
27890;DHT22;15238;49.082;9.102;2024-03-29T12:37:49;13.00;99.90
27890;DHT22;15238;49.082;9.102;2024-03-29T12:39:50;13.10;99.90
27890;DHT22;15238;49.082;9.102;2024-03-29T12:41:54;13.10;99.90
27890;DHT22;15238;49.082;9.102;2024-03-29T12:43:59;13.10;99.90
27890;DHT22;15238;49.082;9.102;2024-03-29T12:46:00;13.10;99.90
27890;DHT22;15238;49.082;9.102;2024-03-29T12:48:01;13.10;99.90
27890;DHT22;15238;49.082;9.102;2024-03-29T12:50:02;13.20;99.90
27890;DHT22;15238;49.082;9.102;2024-03-29T12:52:05;13.20;99.90
27890;DHT22;15238;49.082;9.102;2024-03-29T12:54:06;13.20;99.90
27890;DHT22;15238;49.082;9.102;2024-03-29T12:56:06;13.20;99.90
27890;DHT22;15238;49.082;9.102;2024-03-29T12:58:07;13.10;99.90